RJER(METAR)
05/26 15:00
RJER 260600Z 27008KT 8000 FEW008 BKN010 08/07 Q1011 RMK A2986=
戻る
トップページへ戻る
IMOC Co,.Ltd.